Time;durP1;ratioP1;P1;durP2;ratioP2;P2;SDS_P1;SDS_P2;PMS_P1;PMS_P2;Temp;Humidity;BMP_temperature;BMP_pressure;BME280_temperature;BME280_humidity;BME280_pressure;Samples;Min_cycle;Max_cycle;Signal;HPM_P1;HPM_P2
2022/09/10 00:01:11;;;;;;;15.33;10.23;;;13.00;99.90;;;;;;4923112;23;20597;-93
2022/09/10 00:03:42;;;;;;;17.00;9.97;;;13.10;99.90;;;;;;4935779;29;20198;-89
2022/09/10 00:06:10;;;;;;;20.73;10.17;;;13.00;99.90;;;;;;4924357;28;20206;-95
2022/09/10 00:08:43;;;;;;;16.17;10.37;;;13.00;99.90;;;;;;4955636;28;20331;-92
2022/09/10 00:11:10;;;;;;;14.67;9.37;;;13.00;99.90;;;;;;4955256;28;20237;-91
2022/09/10 00:13:38;;;;;;;14.13;9.33;;;13.10;99.90;;;;;;4944490;23;20237;-93
2022/09/10 00:16:09;;;;;;;15.27;9.77;;;13.00;99.90;;;;;;4940278;29;20257;-94
2022/09/10 00:19:07;;;;;;;14.53;9.37;;;13.00;99.90;;;;;;4960598;23;20289;-95
2022/09/10 00:21:36;;;;;;;14.60;9.33;;;13.00;99.90;;;;;;4942569;23;20235;-93
2022/09/10 00:24:04;;;;;;;14.07;9.57;;;13.00;99.90;;;;;;4934683;29;20645;-91
2022/09/10 00:26:54;;;;;;;14.93;9.33;;;13.10;99.90;;;;;;4935238;29;20199;-94
2022/09/10 00:32:08;;;;;;;17.93;10.03;;;13.00;99.90;;;;;;4933968;29;20334;-85
2022/09/10 00:34:50;;;;;;;15.40;9.70;;;13.00;99.90;;;;;;4880467;29;20200;-83
2022/09/10 00:37:18;;;;;;;16.20;9.30;;;13.00;99.90;;;;;;4880424;29;20208;-93
2022/09/10 00:39:44;;;;;;;15.93;10.40;;;13.00;99.90;;;;;;4880399;29;20206;-92
2022/09/10 00:42:11;;;;;;;17.13;10.00;;;13.10;99.90;;;;;;4880652;29;20260;-92
2022/09/10 00:44:42;;;;;;;16.57;10.47;;;13.00;99.90;;;;;;4880415;29;20259;-90
2022/09/10 00:51:00;;;;;;;16.03;9.73;;;13.00;99.90;;;;;;4943033;23;20238;-91
2022/09/10 00:53:29;;;;;;;15.90;10.10;;;13.00;99.90;;;;;;4902859;29;20648;-91
2022/09/10 00:56:32;;;;;;;16.67;10.20;;;13.00;99.90;;;;;;4879603;29;20211;-85
2022/09/10 01:49:09;;;;;;;16.30;10.03;;;12.70;99.90;;;;;;4964548;23;20243;-89
2022/09/10 01:51:49;;;;;;;16.20;9.53;;;12.80;99.90;;;;;;4887169;29;20227;-87
2022/09/10 01:54:47;;;;;;;15.03;9.50;;;12.80;99.90;;;;;;4919501;29;20210;-86
2022/09/10 01:57:28;;;;;;;13.27;8.73;;;12.90;99.90;;;;;;4886882;29;20210;-85
2022/09/10 02:00:15;;;;;;;16.07;9.20;;;12.90;99.90;;;;;;4919595;29;20200;-86
2022/09/10 02:03:10;;;;;;;15.90;9.43;;;12.90;99.90;;;;;;4902422;29;20195;-82
2022/09/10 02:08:13;;;;;;;16.10;8.63;;;12.80;99.90;;;;;;4960917;23;20248;-89
2022/09/10 02:16:39;;;;;;;12.63;7.30;;;12.80;99.90;;;;;;4970516;23;20230;-84
2022/09/10 02:19:16;;;;;;;14.07;7.37;;;12.90;99.90;;;;;;4940071;29;20202;-82
2022/09/10 02:21:43;;;;;;;11.23;7.23;;;12.90;99.90;;;;;;4939783;29;20659;-84
2022/09/10 02:24:11;;;;;;;11.03;6.77;;;12.90;99.90;;;;;;4940673;29;20198;-83
2022/09/10 02:26:41;;;;;;;14.67;7.67;;;12.90;99.90;;;;;;4946838;23;20234;-80
2022/09/10 02:29:14;;;;;;;11.73;7.27;;;12.90;99.90;;;;;;4956995;29;20276;-84
2022/09/10 02:34:55;;;;;;;11.03;6.90;;;12.80;99.90;;;;;;4919246;29;20290;-88
2022/09/10 02:37:58;;;;;;;11.30;7.13;;;12.80;99.90;;;;;;4788798;30;20621;-94
2022/09/10 02:41:17;;;;;;;13.73;7.80;;;12.90;99.90;;;;;;4931698;23;20238;-94
2022/09/10 02:44:02;;;;;;;12.13;7.07;;;12.80;99.90;;;;;;4943084;23;20763;-88
2022/09/10 02:46:52;;;;;;;11.83;7.63;;;12.80;99.90;;;;;;4893398;29;20233;-91
2022/09/10 02:52:07;;;;;;;12.20;8.07;;;12.70;99.90;;;;;;4945742;23;20337;-90
2022/09/10 02:54:49;;;;;;;12.73;7.80;;;12.70;99.90;;;;;;4922009;29;20200;-87
2022/09/10 02:57:30;;;;;;;12.73;7.80;;;12.70;99.90;;;;;;4922343;29;20671;-88
2022/09/10 03:03:27;;;;;;;13.17;8.27;;;12.90;99.90;;;;;;4923770;23;20241;-89
2022/09/10 03:06:34;;;;;;;15.13;8.80;;;12.80;99.90;;;;;;4920301;29;20694;-88
2022/09/10 03:09:10;;;;;;;13.83;8.37;;;12.90;99.90;;;;;;4919548;29;20665;-90
2022/09/10 03:11:42;;;;;;;13.70;8.63;;;12.80;99.90;;;;;;4918491;29;20234;-89
2022/09/10 03:14:19;;;;;;;15.40;9.20;;;12.80;99.90;;;;;;4919347;29;20281;-89
2022/09/10 03:19:52;;;;;;;13.00;7.77;;;12.80;99.90;;;;;;4987227;23;20267;-94
2022/09/10 03:29:47;;;;;;;12.20;8.27;;;12.70;99.90;;;;;;4949866;23;20245;-87
2022/09/10 03:40:34;;;;;;;14.43;9.17;;;12.60;99.90;;;;;;4882782;29;20210;-90
2022/09/10 03:44:06;;;;;;;16.77;10.07;;;12.50;99.90;;;;;;5065693;23;20241;-92
2022/09/10 03:47:13;;;;;;;16.57;10.10;;;12.60;99.90;;;;;;4880704;29;20216;-88
2022/09/10 03:52:28;;;;;;;16.97;11.20;;;12.60;99.90;;;;;;4940809;23;20242;-89
2022/09/10 04:13:18;;;;;;;20.40;11.63;;;12.60;99.90;;;;;;5383809;23;20245;-87
2022/09/10 05:06:30;;;;;;;15.27;10.40;;;12.70;99.90;;;;;;5171378;23;20223;-85
2022/09/10 05:12:43;;;;;;;15.50;11.33;;;12.70;99.90;;;;;;4991247;23;20263;-84
2022/09/10 05:42:15;;;;;;;12.90;7.67;;;12.70;99.90;;;;;;4978577;23;20230;-85
2022/09/10 05:45:18;;;;;;;12.23;8.00;;;12.80;99.90;;;;;;4939546;23;20615;-84
2022/09/10 05:51:12;;;;;;;12.00;7.80;;;12.80;99.90;;;;;;5795931;23;20229;-86
2022/09/10 06:00:12;;;;;;;12.73;8.13;;;12.80;99.90;;;;;;5008597;23;20239;-85
2022/09/10 06:02:45;;;;;;;10.27;7.33;;;12.90;99.90;;;;;;4927182;29;20206;-85
2022/09/10 06:05:12;;;;;;;11.33;7.40;;;12.90;99.90;;;;;;4921270;29;20679;-88
2022/09/10 06:07:39;;;;;;;13.60;7.47;;;12.80;99.90;;;;;;4938641;29;20221;-88
2022/09/10 06:10:06;;;;;;;10.03;6.60;;;12.80;99.90;;;;;;4938629;29;20218;-86
2022/09/10 06:12:33;;;;;;;9.60;6.40;;;12.80;99.90;;;;;;4930435;29;20229;-82
2022/09/10 06:15:00;;;;;;;10.70;6.93;;;12.90;99.90;;;;;;4925691;29;20250;-86
2022/09/10 06:17:27;;;;;;;9.23;6.40;;;12.90;99.90;;;;;;4946999;29;20195;-87
2022/09/10 06:19:54;;;;;;;9.83;6.70;;;12.90;99.90;;;;;;4921362;29;20199;-87
2022/09/10 06:22:21;;;;;;;11.13;6.50;;;12.90;99.90;;;;;;4921676;29;20203;-87
2022/09/10 06:24:48;;;;;;;12.27;7.03;;;12.90;99.90;;;;;;4921639;29;20194;-89
2022/09/10 06:27:15;;;;;;;10.87;6.90;;;13.00;99.90;;;;;;4938906;29;20267;-90
2022/09/10 06:29:42;;;;;;;9.60;6.50;;;12.90;99.90;;;;;;4938412;29;20208;-89
2022/09/10 06:32:12;;;;;;;11.23;6.70;;;12.90;99.90;;;;;;4920934;29;20238;-89
2022/09/10 06:34:39;;;;;;;15.60;7.73;;;13.00;99.90;;;;;;4922165;29;20203;-89
2022/09/10 06:37:06;;;;;;;10.33;6.80;;;13.00;99.90;;;;;;4922085;29;20199;-88
2022/09/10 06:39:33;;;;;;;10.23;7.10;;;13.00;99.90;;;;;;4921271;29;20637;-88
2022/09/10 06:42:00;;;;;;;18.83;8.47;;;13.00;99.90;;;;;;4920739;29;20206;-88
2022/09/10 06:44:28;;;;;;;11.60;7.23;;;13.10;99.90;;;;;;4920812;29;20225;-87
2022/09/10 06:46:54;;;;;;;15.07;7.83;;;13.10;99.90;;;;;;4920934;29;20195;-87
2022/09/10 06:49:41;;;;;;;9.73;7.30;;;13.20;99.90;;;;;;4920143;29;20227;-85
2022/09/10 06:52:10;;;;;;;11.37;7.37;;;13.20;99.90;;;;;;4920827;29;20716;-86
2022/09/10 06:54:37;;;;;;;11.37;6.70;;;13.20;99.90;;;;;;4921963;29;20196;-88
2022/09/10 06:57:04;;;;;;;12.70;7.60;;;13.30;99.90;;;;;;4920649;29;20210;-89
2022/09/10 06:59:31;;;;;;;14.27;6.93;;;13.30;99.90;;;;;;4920585;29;20234;-88
2022/09/10 07:01:59;;;;;;;12.80;7.23;;;13.20;99.90;;;;;;4920294;29;20206;-90
2022/09/10 07:04:30;;;;;;;11.47;6.97;;;13.20;99.90;;;;;;4937632;29;20642;-85
2022/09/10 07:07:00;;;;;;;11.40;7.17;;;13.10;99.90;;;;;;4920734;29;20214;-85
2022/09/10 07:09:30;;;;;;;12.37;7.20;;;13.20;99.90;;;;;;4920282;29;20302;-87
2022/09/10 07:11:58;;;;;;;11.60;7.70;;;13.20;99.90;;;;;;4920298;29;20223;-86
2022/09/10 07:14:25;;;;;;;10.53;7.17;;;13.30;99.90;;;;;;4920246;29;20210;-82
2022/09/10 07:16:53;;;;;;;10.73;6.90;;;13.20;99.90;;;;;;4920249;29;20206;-82
2022/09/10 07:19:20;;;;;;;10.37;7.27;;;13.30;99.90;;;;;;4920332;29;20230;-80
2022/09/10 07:21:46;;;;;;;11.30;7.07;;;13.30;99.90;;;;;;4919881;29;20601;-85
2022/09/10 07:24:13;;;;;;;10.37;6.93;;;13.20;99.90;;;;;;4920107;29;20203;-84
2022/09/10 07:26:40;;;;;;;11.23;7.43;;;13.10;99.90;;;;;;4920117;29;20237;-81
2022/09/10 07:29:07;;;;;;;10.77;7.27;;;13.20;99.90;;;;;;4919731;29;20648;-83
2022/09/10 07:31:37;;;;;;;11.07;6.80;;;13.20;99.90;;;;;;4919840;29;20199;-83
2022/09/10 07:34:04;;;;;;;10.47;6.83;;;13.30;99.90;;;;;;4920068;29;20708;-84
2022/09/10 07:36:31;;;;;;;10.90;6.87;;;13.30;99.90;;;;;;4920218;29;20230;-85
2022/09/10 07:39:00;;;;;;;11.00;6.80;;;13.20;99.90;;;;;;4921704;29;20199;-82
2022/09/10 07:41:37;;;;;;;11.40;7.50;;;13.20;99.90;;;;;;4923575;29;20307;-86
2022/09/10 07:44:16;;;;;;;12.00;7.57;;;13.20;99.90;;;;;;4919338;29;20213;-85
2022/09/10 07:46:45;;;;;;;11.23;7.47;;;13.30;99.90;;;;;;4919476;29;20198;-82
2022/09/10 07:49:12;;;;;;;11.77;7.87;;;13.30;99.90;;;;;;4919509;29;20224;-82
2022/09/10 07:51:52;;;;;;;11.40;7.43;;;13.30;99.90;;;;;;4937138;29;20241;-84
2022/09/10 07:54:45;;;;;;;12.87;8.47;;;13.40;99.90;;;;;;4919033;29;20752;-86
2022/09/10 07:57:12;;;;;;;11.80;7.90;;;13.40;99.90;;;;;;4919299;29;20194;-87
2022/09/10 07:59:40;;;;;;;12.23;7.43;;;13.50;99.90;;;;;;4919132;29;20223;-86
2022/09/10 08:02:20;;;;;;;14.23;8.50;;;13.50;99.90;;;;;;4919043;29;20216;-83
2022/09/10 08:05:05;;;;;;;12.83;9.07;;;13.50;99.90;;;;;;4919440;29;20691;-82
2022/09/10 08:07:32;;;;;;;14.43;8.83;;;13.50;99.90;;;;;;4919460;29;20213;-84
2022/09/10 08:09:59;;;;;;;26.20;9.67;;;13.40;99.90;;;;;;4919352;29;20207;-87
2022/09/10 08:16:45;;;;;;;;;;;;;;;;;;;;;
2022/09/10 08:19:29;;;;;;;16.27;10.67;;;13.60;99.90;;;;;;4881421;29;20212;-86
2022/09/10 08:21:56;;;;;;;20.60;10.70;;;13.60;99.90;;;;;;4896588;29;20207;-87
2022/09/10 08:24:23;;;;;;;13.43;9.87;;;13.70;99.90;;;;;;4881109;29;20246;-84
2022/09/10 08:27:05;;;;;;;14.27;9.60;;;13.70;99.90;;;;;;4881484;29;20303;-88
2022/09/10 08:32:41;;;;;;;16.80;9.20;;;13.80;99.90;;;;;;4857548;29;20235;-86
2022/09/10 08:35:08;;;;;;;16.30;9.27;;;13.80;99.90;;;;;;4859829;29;20209;-89
2022/09/10 08:37:36;;;;;;;16.67;9.60;;;13.90;99.90;;;;;;4859485;29;20652;-85
2022/09/10 08:40:04;;;;;;;14.50;9.67;;;13.90;99.90;;;;;;4859489;29;20577;-82
2022/09/10 08:42:39;;;;;;;13.70;9.50;;;14.00;99.90;;;;;;4859145;29;20578;-83
2022/09/10 08:45:42;;;;;;;12.80;9.37;;;13.90;99.90;;;;;;4858523;29;20204;-85
2022/09/10 08:51:18;;;;;;;13.90;9.50;;;13.90;99.90;;;;;;5125997;23;20247;-80
2022/09/10 08:54:01;;;;;;;12.67;9.50;;;13.90;99.90;;;;;;4956889;28;20246;-78
2022/09/10 08:56:30;;;;;;;14.87;10.03;;;14.00;99.90;;;;;;4974028;28;20200;-84
2022/09/10 08:59:04;;;;;;;19.33;10.50;;;14.00;99.90;;;;;;4957036;28;20282;-79
2022/09/10 09:01:49;;;;;;;13.87;10.20;;;14.00;99.90;;;;;;4956558;28;20618;-82
2022/09/10 09:05:04;;;;;;;15.20;10.07;;;14.10;99.90;;;;;;4956581;28;20200;-82
2022/09/10 09:07:38;;;;;;;15.27;9.77;;;14.00;99.90;;;;;;4861475;29;20268;-78
2022/09/10 09:10:51;;;;;;;22.47;10.40;;;14.10;99.90;;;;;;4876856;29;20184;-83
2022/09/10 09:17:32;;;;;;;14.37;10.33;;;14.10;99.90;;;;;;4912468;29;20576;-80
2022/09/10 09:20:13;;;;;;;21.00;10.63;;;14.20;99.90;;;;;;4915540;29;20618;-81
2022/09/10 09:23:18;;;;;;;14.10;10.20;;;14.10;99.90;;;;;;4912979;29;20306;-80
2022/09/10 09:30:41;;;;;;;15.63;10.07;;;14.20;99.90;;;;;;4918863;29;20667;-80
2022/09/10 09:33:15;;;;;;;17.20;10.97;;;14.20;99.90;;;;;;4893380;29;20248;-82
2022/09/10 09:35:56;;;;;;;20.00;10.67;;;14.20;99.90;;;;;;4883323;29;20196;-82
2022/09/10 09:38:42;;;;;;;31.63;12.73;;;14.30;99.90;;;;;;4883391;29;20613;-85
2022/09/10 09:49:54;;;;;;;13.63;10.97;;;14.30;99.90;;;;;;2976389;23;20316;-89
2022/09/10 09:52:42;;;;;;;16.80;10.93;;;14.40;99.90;;;;;;4901857;29;20226;-83
2022/09/10 09:55:22;;;;;;;15.67;10.93;;;14.40;99.90;;;;;;4914183;29;20207;-74
2022/09/10 09:58:11;;;;;;;17.40;11.13;;;14.40;99.90;;;;;;4886362;29;20202;-83
2022/09/10 10:00:38;;;;;;;18.40;11.70;;;14.50;99.90;;;;;;4916731;29;20207;-85
2022/09/10 10:03:16;;;;;;;17.43;12.03;;;14.50;99.90;;;;;;4900934;29;20588;-78
2022/09/10 10:05:43;;;;;;;16.27;10.93;;;14.60;99.90;;;;;;4900841;29;20294;-80
2022/09/10 10:08:29;;;;;;;24.40;11.50;;;14.60;99.90;;;;;;4901207;29;20239;-81
2022/09/10 10:10:57;;;;;;;15.07;10.53;;;14.60;99.90;;;;;;4901054;29;20203;-81
2022/09/10 10:13:36;;;;;;;16.83;11.13;;;14.60;99.90;;;;;;4900530;29;20231;-82
2022/09/10 10:16:27;;;;;;;15.47;11.13;;;14.60;99.90;;;;;;4901460;29;20189;-87
2022/09/10 10:18:54;;;;;;;14.10;10.40;;;14.50;99.90;;;;;;4901241;29;20299;-86
2022/09/10 10:21:30;;;;;;;16.90;10.67;;;14.60;99.90;;;;;;4900875;29;20204;-88
2022/09/10 10:23:57;;;;;;;14.37;10.43;;;14.50;99.90;;;;;;4939916;28;20205;-85
2022/09/10 10:26:33;;;;;;;18.17;10.97;;;14.50;99.90;;;;;;4956315;29;20524;-82
2022/09/10 10:29:05;;;;;;;16.47;10.70;;;14.60;99.90;;;;;;4940292;29;20209;-82
2022/09/10 10:31:48;;;;;;;13.80;10.10;;;14.60;99.90;;;;;;4955592;28;20190;-83
2022/09/10 10:34:46;;;;;;;14.33;9.63;;;14.70;99.90;;;;;;4955632;28;20228;-86
2022/09/10 10:37:50;;;;;;;13.93;10.17;;;14.70;99.90;;;;;;4939714;29;20206;-89
2022/09/10 10:41:13;;;;;;;20.23;10.40;;;14.80;99.90;;;;;;4955679;29;20568;-82
2022/09/10 10:44:12;;;;;;;17.37;10.67;;;14.80;99.90;;;;;;4904418;29;20199;-87
2022/09/10 10:47:31;;;;;;;19.20;11.33;;;14.70;99.90;;;;;;4917163;29;20708;-93
2022/09/10 10:50:07;;;;;;;13.30;10.17;;;14.70;99.90;;;;;;4904321;29;20298;-84
2022/09/10 11:03:52;;;;;;;15.73;10.07;;;14.70;99.90;;;;;;4923325;29;20334;-90
2022/09/10 11:06:23;;;;;;;13.83;9.93;;;14.70;99.90;;;;;;4902457;29;20215;-90
2022/09/10 11:09:01;;;;;;;23.53;10.73;;;14.70;99.90;;;;;;4886485;29;20560;-89
2022/09/10 11:11:38;;;;;;;13.27;9.37;;;14.70;99.90;;;;;;4887592;29;20208;-91
2022/09/10 11:14:21;;;;;;;13.63;9.30;;;14.70;99.90;;;;;;4902602;29;20250;-91
2022/09/10 11:16:54;;;;;;;17.53;9.40;;;14.70;99.90;;;;;;4906879;29;20258;-94
2022/09/10 11:19:52;;;;;;;13.17;8.73;;;14.80;99.90;;;;;;4890263;29;20656;-86
2022/09/10 11:22:47;;;;;;;12.63;8.53;;;14.70;99.90;;;;;;4904340;29;20725;-93
2022/09/10 11:25:55;;;;;;;15.10;9.07;;;14.70;99.90;;;;;;4904256;29;20192;-90
2022/09/10 11:28:39;;;;;;;13.23;8.53;;;14.70;99.90;;;;;;4899953;29;20186;-86
2022/09/10 11:31:37;;;;;;;13.57;8.97;;;14.60;99.90;;;;;;4902057;29;20207;-87
2022/09/10 11:34:20;;;;;;;13.07;8.73;;;14.60;99.90;;;;;;4901167;29;20224;-89
2022/09/10 11:36:59;;;;;;;12.00;8.63;;;14.50;99.90;;;;;;4884845;29;20302;-78
2022/09/10 11:39:33;;;;;;;12.60;8.53;;;14.60;99.90;;;;;;4919275;29;20673;-82
2022/09/10 11:42:26;;;;;;;16.20;9.20;;;14.60;99.90;;;;;;4901571;29;20210;-79
2022/09/10 11:45:03;;;;;;;11.63;8.80;;;14.60;99.90;;;;;;4903919;29;20292;-83
2022/09/10 11:51:37;;;;;;;12.00;8.30;;;14.60;99.90;;;;;;4938701;29;20258;-79
2022/09/10 11:54:09;;;;;;;13.67;8.90;;;14.60;99.90;;;;;;4918796;29;20254;-76
2022/09/10 11:57:00;;;;;;;12.97;8.57;;;14.70;99.90;;;;;;4919009;29;20196;-78
2022/09/10 11:59:42;;;;;;;12.73;8.60;;;14.70;99.90;;;;;;4919207;29;20207;-75
2022/09/10 12:02:42;;;;;;;13.20;8.20;;;14.70;99.90;;;;;;4919639;29;20533;-77
2022/09/10 12:05:32;;;;;;;10.37;6.97;;;14.70;99.90;;;;;;4920398;29;20231;-79
2022/09/10 12:08:28;;;;;;;9.33;6.67;;;14.80;99.90;;;;;;4919452;29;20257;-77
2022/09/10 12:11:23;;;;;;;8.37;6.40;;;14.80;99.90;;;;;;4920026;29;20226;-77
2022/09/10 12:13:51;;;;;;;14.03;7.20;;;14.80;99.90;;;;;;4918773;29;20234;-76
2022/09/10 12:17:00;;;;;;;10.90;7.20;;;14.80;99.90;;;;;;4919023;29;20645;-75
2022/09/10 12:19:36;;;;;;;11.77;7.40;;;14.70;99.90;;;;;;4843048;29;20232;-73
2022/09/10 12:22:14;;;;;;;9.90;7.10;;;14.70;99.90;;;;;;4858864;29;20291;-74
2022/09/10 12:24:51;;;;;;;9.63;6.73;;;14.60;99.90;;;;;;4843196;29;20657;-74
2022/09/10 12:27:19;;;;;;;9.63;7.03;;;14.70;99.90;;;;;;4843434;29;20208;-76
2022/09/10 12:29:46;;;;;;;11.30;6.70;;;14.60;99.90;;;;;;4858859;29;20238;-75
2022/09/10 12:32:56;;;;;;;9.20;6.93;;;14.70;99.90;;;;;;4858803;29;20206;-74
2022/09/10 12:35:29;;;;;;;9.43;7.00;;;14.70;99.90;;;;;;4843086;29;20561;-73
2022/09/10 12:38:33;;;;;;;11.60;7.70;;;14.60;99.90;;;;;;4858564;29;20211;-75
2022/09/10 12:41:28;;;;;;;10.50;7.53;;;14.60;99.90;;;;;;4859007;29;20303;-79
2022/09/10 12:44:33;;;;;;;10.63;8.07;;;14.80;99.90;;;;;;4858278;29;20221;-77
2022/09/10 12:47:15;;;;;;;10.50;7.83;;;14.70;99.90;;;;;;4858304;29;20275;-74
2022/09/10 12:49:58;;;;;;;13.50;8.40;;;14.60;99.90;;;;;;4880673;29;20603;-75
2022/09/10 12:52:40;;;;;;;10.37;7.77;;;14.50;99.90;;;;;;4902207;29;20252;-74
2022/09/10 12:55:35;;;;;;;12.03;8.30;;;14.60;99.90;;;;;;4918006;29;20658;-74
2022/09/10 12:58:39;;;;;;;12.97;7.33;;;14.60;99.90;;;;;;4918648;29;20247;-74
2022/09/10 13:01:29;;;;;;;9.63;6.97;;;14.50;99.90;;;;;;4921573;29;20207;-75
2022/09/10 13:04:01;;;;;;;10.40;6.83;;;14.50;99.90;;;;;;4912323;29;20202;-75
2022/09/10 13:06:38;;;;;;;10.57;6.77;;;14.60;99.90;;;;;;4922162;29;20198;-73
2022/09/10 13:09:18;;;;;;;11.60;7.00;;;14.70;99.90;;;;;;4922058;29;20202;-73
2022/09/10 13:11:55;;;;;;;10.50;6.77;;;14.80;99.90;;;;;;4922164;29;20203;-74
2022/09/10 13:14:29;;;;;;;8.80;6.70;;;14.80;99.90;;;;;;4906405;29;20731;-75
2022/09/10 13:16:56;;;;;;;9.00;6.67;;;14.80;99.90;;;;;;4922022;29;20195;-75
2022/09/10 13:19:23;;;;;;;12.43;7.90;;;14.80;99.90;;;;;;4922465;29;20216;-74
2022/09/10 13:21:52;;;;;;;12.20;8.00;;;14.80;99.90;;;;;;4921762;29;20199;-76
2022/09/10 13:24:30;;;;;;;13.50;7.90;;;14.80;99.90;;;;;;4921975;29;20220;-76
2022/09/10 13:27:38;;;;;;;10.73;6.80;;;14.80;99.90;;;;;;4937652;29;20212;-78
2022/09/10 13:30:22;;;;;;;9.87;6.60;;;14.80;99.90;;;;;;4939025;29;20221;-79
2022/09/10 13:33:03;;;;;;;12.90;6.90;;;14.80;99.90;;;;;;4938704;29;20195;-76
2022/09/10 13:36:04;;;;;;;10.73;6.80;;;14.90;99.90;;;;;;4921949;29;20210;-80
2022/09/10 13:38:46;;;;;;;9.47;6.90;;;14.80;99.90;;;;;;4907454;29;20302;-76
2022/09/10 13:41:52;;;;;;;20.93;7.97;;;14.80;99.90;;;;;;4921500;29;20210;-76
2022/09/10 13:44:38;;;;;;;11.43;7.33;;;14.70;99.90;;;;;;4921610;29;20195;-77
2022/09/10 13:47:26;;;;;;;19.87;8.57;;;14.70;99.90;;;;;;4938499;29;20198;-75
2022/09/10 13:50:56;;;;;;;12.03;8.20;;;14.60;99.90;;;;;;4892105;29;20649;-77
2022/09/10 13:54:08;;;;;;;14.40;8.83;;;14.70;99.90;;;;;;4921366;29;20242;-82
2022/09/10 13:56:42;;;;;;;13.13;9.03;;;14.70;99.90;;;;;;4950773;23;20239;-78
2022/09/10 13:59:56;;;;;;;16.53;9.23;;;14.50;99.90;;;;;;4927337;28;20213;-83
2022/09/10 14:06:35;;;;;;;18.57;7.77;;;14.50;99.90;;;;;;5665494;23;20332;-84
2022/09/10 14:09:39;;;;;;;12.23;7.73;;;14.50;99.90;;;;;;4880091;29;20687;-89
2022/09/10 14:51:28;;;;;;;11.20;7.63;;;14.70;99.90;;;;;;5000711;23;20234;-81
2022/09/10 15:00:35;;;;;;;10.80;7.20;;;14.80;99.90;;;;;;5213475;23;20321;-84
2022/09/10 15:03:27;;;;;;;10.50;7.27;;;14.80;99.90;;;;;;4939012;29;20573;-81
2022/09/10 15:06:17;;;;;;;12.93;7.80;;;14.80;99.90;;;;;;4923218;29;20553;-80
2022/09/10 15:20:37;;;;;;;18.03;8.73;;;14.70;99.90;;;;;;5052379;23;20235;-81
2022/09/10 15:23:55;;;;;;;12.87;8.50;;;14.60;99.90;;;;;;4859701;29;20288;-80
2022/09/10 15:26:22;;;;;;;17.20;10.10;;;14.60;99.90;;;;;;4859594;29;20209;-78
2022/09/10 15:28:49;;;;;;;14.67;9.30;;;14.50;99.90;;;;;;4859580;29;20201;-79
2022/09/10 15:31:17;;;;;;;16.07;9.90;;;14.50;99.90;;;;;;4856984;29;20203;-80
2022/09/10 15:33:55;;;;;;;16.97;10.20;;;14.50;99.90;;;;;;4843429;29;20583;-81
2022/09/10 15:36:43;;;;;;;18.63;11.57;;;14.40;99.90;;;;;;4841489;29;20245;-79
2022/09/10 15:39:11;;;;;;;20.27;12.23;;;14.30;99.90;;;;;;4841114;29;20212;-78
2022/09/10 15:41:43;;;;;;;21.33;12.40;;;14.20;99.90;;;;;;4911058;29;20217;-77
2022/09/10 15:44:10;;;;;;;32.90;17.07;;;14.30;99.90;;;;;;4935341;29;20218;-83
2022/09/10 15:46:44;;;;;;;21.90;12.87;;;14.30;99.90;;;;;;4919784;29;20608;-78
2022/09/10 15:49:18;;;;;;;21.03;12.00;;;14.30;99.90;;;;;;4935032;29;20250;-77
2022/09/10 15:51:45;;;;;;;17.10;10.57;;;14.30;99.90;;;;;;4934680;29;20294;-76
2022/09/10 15:54:12;;;;;;;17.27;11.07;;;14.30;99.90;;;;;;4935569;29;20227;-79
2022/09/10 16:04:50;;;;;;;18.73;9.80;;;14.30;99.90;;;;;;1217185;23;20278;-86
2022/09/10 16:07:17;;;;;;;19.00;11.77;;;14.30;99.90;;;;;;5001934;23;20242;-84
2022/09/10 16:23:34;;;;;;;15.47;9.97;;;14.20;99.90;;;;;;5773787;23;20237;-86
2022/09/10 16:26:33;;;;;;;25.40;14.97;;;14.20;99.90;;;;;;4903243;29;20306;-79
2022/09/10 16:29:31;;;;;;;18.27;11.43;;;14.20;99.90;;;;;;4888984;23;20311;-84
2022/09/10 16:32:38;;;;;;;20.63;13.20;;;14.10;99.90;;;;;;4822244;29;20231;-86
2022/09/10 17:39:34;;;;;;;21.13;12.80;;;13.60;99.90;;;;;;5164535;23;20474;-78
2022/09/10 17:42:01;;;;;;;21.60;13.03;;;13.60;99.90;;;;;;4917526;29;20237;-76
2022/09/10 17:44:28;;;;;;;22.37;12.83;;;13.50;99.90;;;;;;4902540;29;20202;-78
2022/09/10 17:47:13;;;;;;;22.00;12.67;;;13.50;99.90;;;;;;4919220;29;20209;-79
2022/09/10 17:49:42;;;;;;;21.30;12.77;;;13.40;99.90;;;;;;4902377;29;20223;-76
2022/09/10 17:52:08;;;;;;;20.20;12.33;;;13.50;99.90;;;;;;4918295;29;20223;-77
2022/09/10 17:54:35;;;;;;;23.07;12.00;;;13.50;99.90;;;;;;4919298;29;20217;-79
2022/09/10 17:57:05;;;;;;;19.20;11.93;;;13.50;99.90;;;;;;4902619;29;20697;-75
2022/09/10 17:59:33;;;;;;;19.77;12.60;;;13.50;99.90;;;;;;4902401;29;20220;-76
2022/09/10 18:02:00;;;;;;;19.70;11.93;;;13.50;99.90;;;;;;4917768;29;20218;-75
2022/09/10 18:04:27;;;;;;;17.67;10.70;;;13.50;99.90;;;;;;4902527;29;20209;-76
2022/09/10 18:06:54;;;;;;;18.07;11.00;;;13.50;99.90;;;;;;4902417;29;20622;-76
2022/09/10 18:09:25;;;;;;;17.00;10.80;;;13.50;99.90;;;;;;4901926;29;20204;-78
2022/09/10 18:12:07;;;;;;;18.27;10.57;;;13.50;99.90;;;;;;4902199;29;20200;-77
2022/09/10 18:14:37;;;;;;;17.73;10.40;;;13.60;99.90;;;;;;4917755;29;20690;-77
2022/09/10 18:17:04;;;;;;;16.40;10.13;;;13.60;99.90;;;;;;4902287;29;20200;-77
2022/09/10 18:19:40;;;;;;;16.50;10.53;;;13.60;99.90;;;;;;4902279;29;20195;-76
2022/09/10 18:22:07;;;;;;;17.27;10.23;;;13.70;99.90;;;;;;4901627;29;20214;-77
2022/09/10 18:24:34;;;;;;;15.87;10.53;;;13.60;99.90;;;;;;4902047;29;20203;-74
2022/09/10 18:27:03;;;;;;;17.60;11.07;;;13.60;99.90;;;;;;4918927;29;20600;-76
2022/09/10 18:29:30;;;;;;;16.50;10.23;;;13.60;99.90;;;;;;4901959;29;20527;-76
2022/09/10 18:31:59;;;;;;;16.30;10.40;;;13.50;99.90;;;;;;4917390;29;20568;-76
2022/09/10 18:34:29;;;;;;;16.33;10.17;;;13.60;99.90;;;;;;4901660;29;20226;-76
2022/09/10 18:37:03;;;;;;;18.20;10.77;;;13.60;99.90;;;;;;4918632;29;20191;-75
2022/09/10 18:39:32;;;;;;;19.77;10.30;;;13.60;99.90;;;;;;4917311;29;20290;-75
2022/09/10 18:42:05;;;;;;;15.87;10.33;;;13.60;99.90;;;;;;4955910;23;20238;-77
2022/09/10 18:44:35;;;;;;;14.03;9.30;;;13.60;99.90;;;;;;4936263;29;20203;-77
2022/09/10 18:47:05;;;;;;;16.33;10.00;;;13.70;99.90;;;;;;4920396;29;20210;-80
2022/09/10 18:49:55;;;;;;;15.67;9.67;;;13.60;99.90;;;;;;4936462;29;20225;-78
2022/09/10 18:52:22;;;;;;;13.63;8.83;;;13.70;99.90;;;;;;4936129;29;20217;-77
2022/09/10 18:54:55;;;;;;;13.97;8.83;;;13.60;99.90;;;;;;4936651;29;20218;-77
2022/09/10 18:57:23;;;;;;;15.27;9.20;;;13.60;99.90;;;;;;4920226;29;20713;-76
2022/09/10 18:59:56;;;;;;;12.67;8.40;;;13.60;99.90;;;;;;4938316;29;20262;-76
2022/09/10 19:02:23;;;;;;;12.97;8.27;;;13.60;99.90;;;;;;4940572;29;20641;-76
2022/09/10 19:04:53;;;;;;;12.67;8.30;;;13.50;99.90;;;;;;4938537;29;20237;-78
2022/09/10 19:07:37;;;;;;;12.43;8.37;;;13.50;99.90;;;;;;4942051;29;20578;-76
2022/09/10 19:10:05;;;;;;;12.60;8.60;;;13.40;99.90;;;;;;4938451;29;20587;-76
2022/09/10 19:12:33;;;;;;;11.47;8.03;;;13.40;99.90;;;;;;4940506;29;20207;-78
2022/09/10 19:15:00;;;;;;;11.50;7.87;;;13.40;99.90;;;;;;4939076;29;20234;-77
2022/09/10 19:17:26;;;;;;;11.33;7.90;;;13.40;99.90;;;;;;4942691;29;20195;-79
2022/09/10 19:20:03;;;;;;;12.83;8.50;;;13.40;99.90;;;;;;4940658;29;20206;-75
2022/09/10 19:22:30;;;;;;;13.73;8.73;;;13.30;99.90;;;;;;4939593;29;20223;-78
2022/09/10 19:24:57;;;;;;;13.57;9.00;;;13.30;99.90;;;;;;4941294;29;20208;-77
2022/09/10 19:27:24;;;;;;;14.63;9.10;;;13.30;99.90;;;;;;4941179;29;20649;-78
2022/09/10 19:29:51;;;;;;;15.47;8.67;;;13.40;99.90;;;;;;4938380;29;20201;-78
2022/09/10 19:32:18;;;;;;;14.20;8.60;;;13.40;99.90;;;;;;4939358;29;20270;-76
2022/09/10 19:34:48;;;;;;;13.40;9.10;;;13.40;99.90;;;;;;4938052;29;20211;-76
2022/09/10 19:37:16;;;;;;;13.47;8.40;;;13.40;99.90;;;;;;4936674;29;20187;-77
2022/09/10 19:39:43;;;;;;;13.23;8.83;;;13.40;99.90;;;;;;4938049;29;20242;-77
2022/09/10 19:42:11;;;;;;;12.43;8.50;;;13.40;99.90;;;;;;4936586;29;20234;-76
2022/09/10 19:44:38;;;;;;;12.90;8.50;;;13.40;99.90;;;;;;4939251;29;20195;-78
2022/09/10 19:49:57;;;;;;;11.53;8.10;;;13.40;99.90;;;;;;4929793;29;20226;-77
2022/09/10 19:52:34;;;;;;;13.30;8.67;;;13.50;99.90;;;;;;4947763;29;20202;-79
2022/09/10 19:55:02;;;;;;;14.10;9.53;;;13.50;99.90;;;;;;4943878;29;20220;-82
2022/09/10 19:57:30;;;;;;;12.60;8.83;;;13.40;99.90;;;;;;4936181;29;20580;-82
2022/09/10 19:59:57;;;;;;;11.53;8.13;;;13.40;99.90;;;;;;4935373;29;20299;-77
2022/09/10 20:02:24;;;;;;;11.93;7.53;;;13.40;99.90;;;;;;4919284;29;20206;-78
2022/09/10 20:04:51;;;;;;;9.33;6.63;;;13.40;99.90;;;;;;4935448;29;20199;-76
2022/09/10 20:07:18;;;;;;;9.07;6.37;;;13.40;99.90;;;;;;4935336;29;20210;-79